createdAt,value
2023-01-29T00:02:05.573Z,4.03
2023-01-29T00:04:34.113Z,3.57
2023-01-29T00:07:02.193Z,3.70
2023-01-29T00:09:31.880Z,3.50
2023-01-29T00:11:59.905Z,2.93
2023-01-29T00:14:28.399Z,4.00
2023-01-29T00:16:57.901Z,4.10
2023-01-29T00:19:25.943Z,3.17
2023-01-29T00:21:54.254Z,2.67
2023-01-29T00:24:22.807Z,3.03
2023-01-29T00:26:51.031Z,4.03
2023-01-29T00:29:19.095Z,4.20
2023-01-29T00:31:47.338Z,2.93
2023-01-29T00:34:18.752Z,4.60
2023-01-29T00:36:46.777Z,5.53
2023-01-29T00:39:14.798Z,2.77
2023-01-29T00:42:00.379Z,5.30
2023-01-29T00:44:46.011Z,4.13
2023-01-29T00:47:27.947Z,4.33
2023-01-29T00:49:58.058Z,2.80
2023-01-29T00:52:26.480Z,4.13
2023-01-29T00:54:55.493Z,4.77
2023-01-29T00:57:23.903Z,3.87
2023-01-29T00:59:51.945Z,7.37
2023-01-29T01:02:38.071Z,4.70
2023-01-29T01:05:10.289Z,2.37
2023-01-29T01:07:38.494Z,4.57
2023-01-29T01:10:21.927Z,2.73
2023-01-29T01:12:53.524Z,3.20
2023-01-29T01:15:22.311Z,4.10
2023-01-29T01:17:53.883Z,2.70
2023-01-29T01:20:23.399Z,2.97
2023-01-29T01:22:54.196Z,4.27
2023-01-29T01:25:22.633Z,5.30
2023-01-29T01:27:53.687Z,3.73
2023-01-29T01:30:22.054Z,2.90
2023-01-29T01:32:50.547Z,3.60
2023-01-29T01:35:18.880Z,2.70
2023-01-29T01:37:48.291Z,3.30
2023-01-29T01:40:19.189Z,3.73
2023-01-29T01:42:49.342Z,2.97
2023-01-29T01:45:25.625Z,4.03
2023-01-29T01:47:58.380Z,4.87
2023-01-29T01:50:31.009Z,4.77
2023-01-29T01:53:05.695Z,3.03
2023-01-29T01:55:36.376Z,2.63
2023-01-29T01:58:10.045Z,3.10
2023-01-29T02:00:40.488Z,3.07
2023-01-29T02:03:28.009Z,2.83
2023-01-29T02:06:16.070Z,2.80
2023-01-29T02:09:10.427Z,3.10
2023-01-29T02:11:38.887Z,3.13
2023-01-29T02:14:07.416Z,3.40
2023-01-29T02:16:36.206Z,3.10
2023-01-29T02:19:09.849Z,2.60
2023-01-29T02:22:00.632Z,3.00
2023-01-29T02:24:59.004Z,3.30
2023-01-29T02:27:39.693Z,2.50
2023-01-29T02:30:15.577Z,3.10
2023-01-29T02:32:58.436Z,3.57
2023-01-29T02:35:31.937Z,10.20
2023-01-29T02:38:10.296Z,5.20
2023-01-29T02:40:44.531Z,2.93
2023-01-29T02:43:24.405Z,3.10
2023-01-29T02:46:01.269Z,3.73
2023-01-29T02:48:41.264Z,2.50
2023-01-29T02:51:14.870Z,3.13
2023-01-29T02:53:53.563Z,3.73
2023-01-29T02:56:28.553Z,3.77
2023-01-29T02:59:01.663Z,4.30
2023-01-29T03:01:37.501Z,5.80
2023-01-29T03:04:10.955Z,2.70
2023-01-29T03:06:44.040Z,4.83
2023-01-29T03:09:16.949Z,4.07
2023-01-29T03:11:51.004Z,3.20
2023-01-29T03:14:51.238Z,3.13
2023-01-29T03:17:23.733Z,4.73
2023-01-29T03:19:52.277Z,3.67
2023-01-29T03:22:24.636Z,3.53
2023-01-29T03:25:15.363Z,3.77
2023-01-29T03:28:06.955Z,3.50
2023-01-29T03:31:01.931Z,3.27
2023-01-29T03:33:55.930Z,3.73
2023-01-29T03:36:37.771Z,3.20
2023-01-29T03:39:06.752Z,3.53
2023-01-29T03:41:39.323Z,6.53
2023-01-29T03:44:15.438Z,3.00
2023-01-29T03:46:49.839Z,4.83
2023-01-29T03:49:26.447Z,5.50
2023-01-29T03:52:01.594Z,5.67
2023-01-29T03:54:40.495Z,3.10
2023-01-29T03:57:17.689Z,3.40
2023-01-29T03:59:54.758Z,3.87
2023-01-29T04:02:48.202Z,3.53
2023-01-29T04:05:21.177Z,5.33
2023-01-29T04:08:07.952Z,4.17
2023-01-29T04:10:41.157Z,5.63
2023-01-29T04:13:13.020Z,4.80
2023-01-29T04:15:48.176Z,4.07
2023-01-29T04:18:16.684Z,5.77
2023-01-29T04:21:08.227Z,5.50
2023-01-29T04:23:37.179Z,5.37
2023-01-29T04:26:26.028Z,4.93
2023-01-29T04:29:07.188Z,3.97
2023-01-29T04:31:41.837Z,3.93
2023-01-29T04:34:18.980Z,4.23
2023-01-29T04:37:00.723Z,4.53
2023-01-29T04:39:36.236Z,3.30
2023-01-29T04:42:12.073Z,3.30
2023-01-29T04:44:44.718Z,3.03
2023-01-29T04:47:23.200Z,4.40
2023-01-29T04:49:59.859Z,3.40
2023-01-29T04:52:39.247Z,3.90
2023-01-29T04:55:10.885Z,3.27
2023-01-29T04:57:48.358Z,5.03
2023-01-29T05:00:21.308Z,4.20
2023-01-29T05:02:50.297Z,5.73
2023-01-29T05:05:20.989Z,4.90
2023-01-29T05:07:50.643Z,4.47
2023-01-29T05:10:21.448Z,4.10
2023-01-29T05:12:55.019Z,6.80
2023-01-29T05:15:27.795Z,3.40
2023-01-29T05:18:01.796Z,4.13
2023-01-29T05:20:33.097Z,3.30
2023-01-29T05:23:02.555Z,3.70
2023-01-29T05:25:33.130Z,5.40
2023-01-29T05:28:06.941Z,4.67
2023-01-29T05:30:37.771Z,4.40
2023-01-29T05:33:06.697Z,5.00
2023-01-29T05:35:34.856Z,5.50
2023-01-29T05:38:04.214Z,3.67
2023-01-29T05:40:32.903Z,4.57
2023-01-29T05:43:00.992Z,9.23
2023-01-29T05:45:29.498Z,3.23
2023-01-29T05:47:58.129Z,5.00
2023-01-29T05:50:27.137Z,2.90
2023-01-29T05:52:58.141Z,4.97
2023-01-29T05:55:27.675Z,5.70
2023-01-29T05:57:55.695Z,7.57
2023-01-29T06:00:23.936Z,4.30
2023-01-29T06:02:51.971Z,5.37
2023-01-29T06:05:20.006Z,5.07
2023-01-29T06:07:48.036Z,5.60
2023-01-29T06:10:18.630Z,6.27
2023-01-29T06:12:48.212Z,6.30
2023-01-29T06:15:16.595Z,4.10
2023-01-29T06:17:44.864Z,6.10
2023-01-29T06:20:14.893Z,6.30
2023-01-29T06:22:43.268Z,5.27
2023-01-29T06:25:11.307Z,5.13
2023-01-29T06:27:39.527Z,8.57
2023-01-29T06:30:10.402Z,7.73
2023-01-29T06:32:38.497Z,6.93
2023-01-29T06:35:07.661Z,6.93
2023-01-29T06:37:35.662Z,8.57
2023-01-29T06:40:03.757Z,6.00
2023-01-29T06:42:31.788Z,4.73
2023-01-29T06:44:59.805Z,4.90
2023-01-29T06:47:29.297Z,4.30
2023-01-29T06:49:57.335Z,7.10
2023-01-29T06:52:28.821Z,7.20
2023-01-29T06:54:57.258Z,4.23
2023-01-29T06:57:25.392Z,6.10
2023-01-29T06:59:53.404Z,5.17
2023-01-29T07:02:21.504Z,7.50
2023-01-29T07:04:50.962Z,5.40
2023-01-29T07:07:19.023Z,5.77
2023-01-29T07:09:47.057Z,5.50
2023-01-29T07:12:15.079Z,6.27
2023-01-29T07:14:43.079Z,7.00
2023-01-29T07:17:11.095Z,6.43
2023-01-29T07:19:39.124Z,8.70
2023-01-29T07:22:08.502Z,9.60
2023-01-29T07:24:36.527Z,11.10
2023-01-29T07:27:04.664Z,9.47
2023-01-29T07:29:32.694Z,9.00
2023-01-29T07:32:00.851Z,9.90
2023-01-29T07:34:28.920Z,8.50
2023-01-29T07:36:57.388Z,10.30
2023-01-29T07:39:26.773Z,7.60
2023-01-29T07:41:54.782Z,6.57
2023-01-29T07:44:24.303Z,9.20
2023-01-29T07:46:52.318Z,5.60
2023-01-29T07:49:20.325Z,6.70
2023-01-29T07:51:48.357Z,6.60
2023-01-29T07:54:16.341Z,5.53
2023-01-29T07:56:45.697Z,36.23
2023-01-29T07:59:13.839Z,16.57
2023-01-29T08:01:41.890Z,6.37
2023-01-29T08:04:09.907Z,6.73
2023-01-29T08:06:38.166Z,6.67
2023-01-29T08:09:06.195Z,10.30
2023-01-29T08:11:34.246Z,6.93
2023-01-29T08:14:03.876Z,6.07
2023-01-29T08:16:32.087Z,6.27
2023-01-29T08:19:00.133Z,10.87
2023-01-29T08:21:28.175Z,9.07
2023-01-29T08:23:56.223Z,10.53
2023-01-29T08:26:26.197Z,7.00
2023-01-29T08:28:54.751Z,8.17
2023-01-29T08:31:24.420Z,9.50
2023-01-29T08:33:54.354Z,6.80
2023-01-29T08:36:23.711Z,9.27
2023-01-29T08:38:52.305Z,10.70
2023-01-29T08:41:20.398Z,8.87
2023-01-29T08:43:48.493Z,11.00
2023-01-29T08:46:16.873Z,9.90
2023-01-29T08:48:46.176Z,12.80
2023-01-29T08:51:14.239Z,11.63
2023-01-29T08:53:42.266Z,11.67
2023-01-29T08:56:10.293Z,8.70
2023-01-29T08:58:38.301Z,9.17
2023-01-29T09:01:10.993Z,9.10
2023-01-29T09:03:40.928Z,8.07
2023-01-29T09:06:12.684Z,8.83
2023-01-29T09:08:41.064Z,8.57
2023-01-29T09:11:09.243Z,8.03
2023-01-29T09:13:37.360Z,9.43
2023-01-29T09:16:06.646Z,13.70
2023-01-29T09:18:34.690Z,8.00
2023-01-29T09:21:03.027Z,9.47
2023-01-29T09:23:32.968Z,9.03
2023-01-29T09:26:01.091Z,16.00
2023-01-29T09:28:29.363Z,13.00
2023-01-29T09:30:57.531Z,11.03
2023-01-29T09:33:26.098Z,8.83
2023-01-29T09:35:54.189Z,13.90
2023-01-29T09:38:22.196Z,10.40
2023-01-29T09:40:59.457Z,12.63
2023-01-29T09:43:35.662Z,10.80
2023-01-29T09:46:15.310Z,12.47
2023-01-29T09:48:43.944Z,11.97
2023-01-29T09:51:20.950Z,13.90
2023-01-29T09:53:58.339Z,12.27
2023-01-29T09:56:28.992Z,10.87
2023-01-29T09:59:01.374Z,12.90
2023-01-29T10:01:36.825Z,15.10
2023-01-29T10:04:29.254Z,13.07
2023-01-29T10:07:11.340Z,10.93
2023-01-29T10:09:58.223Z,9.17
2023-01-29T10:12:40.490Z,13.13
2023-01-29T10:15:20.922Z,12.20
2023-01-29T10:17:58.546Z,11.77
2023-01-29T10:20:40.490Z,10.90
2023-01-29T10:23:19.657Z,9.07
2023-01-29T10:25:49.131Z,11.03
2023-01-29T10:28:21.589Z,11.67
2023-01-29T10:30:51.910Z,14.07
2023-01-29T10:33:24.852Z,9.90
2023-01-29T10:35:57.251Z,13.50
2023-01-29T10:38:38.367Z,10.80
2023-01-29T10:41:24.064Z,9.93
2023-01-29T10:44:02.989Z,12.60
2023-01-29T10:46:48.811Z,10.40
2023-01-29T10:49:32.712Z,11.70
2023-01-29T10:52:17.347Z,7.83
2023-01-29T10:55:00.110Z,12.40
2023-01-29T10:57:43.213Z,9.40
2023-01-29T11:00:20.216Z,12.10
2023-01-29T11:02:51.142Z,11.40
2023-01-29T11:05:27.526Z,12.80
2023-01-29T11:08:05.290Z,10.83
2023-01-29T11:10:38.618Z,10.80
2023-01-29T11:13:07.322Z,11.63
2023-01-29T11:15:36.676Z,13.30
2023-01-29T11:18:13.695Z,12.40
2023-01-29T11:20:43.041Z,14.40
2023-01-29T11:23:27.213Z,10.90
2023-01-29T11:25:56.698Z,11.47
2023-01-29T11:28:38.315Z,10.47
2023-01-29T11:31:20.124Z,17.63
2023-01-29T11:33:48.625Z,13.30
2023-01-29T11:36:32.781Z,11.07
2023-01-29T11:39:15.411Z,13.90
2023-01-29T11:41:45.410Z,11.20
2023-01-29T11:44:21.218Z,14.20
2023-01-29T11:46:51.458Z,12.63
2023-01-29T11:49:27.723Z,13.90
2023-01-29T11:51:58.194Z,14.40
2023-01-29T11:54:32.212Z,14.50
2023-01-29T11:57:00.805Z,13.00
2023-01-29T11:59:38.844Z,13.00
2023-01-29T12:02:23.564Z,12.80
2023-01-29T12:04:52.128Z,13.87
2023-01-29T12:07:20.708Z,13.20
2023-01-29T12:09:55.425Z,13.67
2023-01-29T12:12:42.090Z,13.20
2023-01-29T12:15:19.704Z,11.80
2023-01-29T12:17:57.351Z,14.87
2023-01-29T12:20:31.275Z,15.90
2023-01-29T12:23:06.206Z,18.87
2023-01-29T12:25:44.679Z,13.70
2023-01-29T12:28:23.606Z,12.83
2023-01-29T12:31:00.909Z,14.47
2023-01-29T12:33:40.123Z,14.13
2023-01-29T12:36:14.466Z,12.37
2023-01-29T12:38:45.182Z,11.13
2023-01-29T12:41:34.570Z,15.23
2023-01-29T12:44:07.140Z,10.40
2023-01-29T12:46:41.301Z,10.00
2023-01-29T12:49:16.959Z,9.87
2023-01-29T12:51:54.312Z,12.33
2023-01-29T12:54:28.629Z,14.23
2023-01-29T12:57:01.038Z,10.50
2023-01-29T12:59:37.377Z,8.97
2023-01-29T13:02:19.604Z,7.43
2023-01-29T13:04:56.224Z,8.20
2023-01-29T13:07:29.447Z,6.57
2023-01-29T13:10:03.655Z,10.77
2023-01-29T13:12:32.548Z,10.20
2023-01-29T13:15:05.018Z,8.70
2023-01-29T13:17:37.322Z,7.83
2023-01-29T13:20:14.497Z,11.60
2023-01-29T13:22:45.431Z,8.13
2023-01-29T13:25:17.477Z,6.13
2023-01-29T13:27:47.689Z,5.80
2023-01-29T13:30:30.236Z,8.80
2023-01-29T13:33:09.238Z,7.33
2023-01-29T13:35:41.662Z,8.60
2023-01-29T13:38:25.180Z,8.03
2023-01-29T13:40:56.339Z,8.97
2023-01-29T13:43:25.030Z,8.67
2023-01-29T13:45:54.879Z,7.87
2023-01-29T13:48:27.092Z,9.40
2023-01-29T13:50:58.362Z,9.93
2023-01-29T13:53:28.685Z,8.47
2023-01-29T13:55:56.756Z,10.97
2023-01-29T13:59:00.276Z,9.90
2023-01-29T14:02:03.726Z,8.77
2023-01-29T14:04:34.169Z,10.50
2023-01-29T14:07:23.900Z,8.70
2023-01-29T14:10:16.034Z,8.30
2023-01-29T14:12:49.443Z,7.40
2023-01-29T14:15:34.608Z,15.60
2023-01-29T14:18:27.008Z,10.10
2023-01-29T14:21:02.120Z,7.10
2023-01-29T14:23:36.759Z,8.13
2023-01-29T14:26:19.900Z,7.93
2023-01-29T14:28:55.286Z,13.97
2023-01-29T14:31:31.011Z,13.07
2023-01-29T14:34:02.956Z,8.83
2023-01-29T14:36:39.689Z,10.00
2023-01-29T14:39:08.350Z,7.90
2023-01-29T14:41:37.781Z,7.03
2023-01-29T14:44:42.919Z,9.70
2023-01-29T14:47:22.100Z,14.20
2023-01-29T14:49:52.132Z,9.40
2023-01-29T14:52:23.658Z,8.53
2023-01-29T14:54:54.130Z,9.50
2023-01-29T14:57:24.523Z,9.23
2023-01-29T14:59:58.704Z,7.83
2023-01-29T15:02:33.693Z,8.40
2023-01-29T15:05:04.503Z,8.73
2023-01-29T15:07:37.488Z,8.73
2023-01-29T15:10:23.524Z,10.20
2023-01-29T15:12:58.302Z,6.50
2023-01-29T15:15:36.527Z,9.77
2023-01-29T15:18:08.867Z,6.77
2023-01-29T15:20:38.464Z,8.73
2023-01-29T15:23:26.234Z,12.70
2023-01-29T15:25:57.401Z,10.13
2023-01-29T15:28:30.817Z,11.77
2023-01-29T15:31:01.133Z,8.00
2023-01-29T15:33:29.857Z,9.37
2023-01-29T15:36:07.407Z,10.00
2023-01-29T15:38:36.451Z,10.03
2023-01-29T15:41:17.048Z,9.03
2023-01-29T15:43:48.715Z,8.70
2023-01-29T15:46:26.002Z,6.87
2023-01-29T15:48:55.929Z,10.87
2023-01-29T15:51:27.967Z,6.30
2023-01-29T15:53:58.721Z,7.40
2023-01-29T15:56:30.047Z,16.20
2023-01-29T15:59:07.289Z,9.57
2023-01-29T16:01:37.379Z,10.60
2023-01-29T16:04:06.718Z,9.87
2023-01-29T16:06:38.763Z,8.77
2023-01-29T16:09:08.055Z,9.20
2023-01-29T16:11:37.132Z,8.20
2023-01-29T16:14:07.394Z,8.60
2023-01-29T16:16:35.723Z,8.80
2023-01-29T16:19:15.067Z,11.43
2023-01-29T16:21:45.862Z,7.73
2023-01-29T16:24:25.293Z,10.50
2023-01-29T16:26:59.680Z,8.43
2023-01-29T16:29:33.497Z,10.50
2023-01-29T16:32:03.386Z,9.93
2023-01-29T16:34:34.008Z,7.60
2023-01-29T16:37:05.826Z,9.73
2023-01-29T16:39:37.797Z,8.87
2023-01-29T16:42:28.402Z,7.50
2023-01-29T16:45:00.708Z,11.73
2023-01-29T16:47:34.863Z,10.43
2023-01-29T16:50:24.044Z,9.57
2023-01-29T16:53:01.372Z,8.90
2023-01-29T16:55:36.950Z,7.83
2023-01-29T16:58:13.894Z,8.70
2023-01-29T17:00:48.003Z,9.50
2023-01-29T17:03:18.402Z,11.60
2023-01-29T17:05:47.276Z,16.57
2023-01-29T17:08:23.712Z,10.10
2023-01-29T17:10:52.597Z,9.20
2023-01-29T17:13:27.999Z,19.00
2023-01-29T17:16:02.721Z,12.93
2023-01-29T17:18:31.284Z,14.73
2023-01-29T17:20:59.291Z,14.87
2023-01-29T17:23:27.882Z,17.30
2023-01-29T17:25:55.933Z,19.33
2023-01-29T17:28:24.001Z,18.60
2023-01-29T17:31:05.307Z,16.67
2023-01-29T17:33:36.603Z,16.83
2023-01-29T17:36:05.097Z,17.53
2023-01-29T17:38:33.850Z,14.50
2023-01-29T17:41:07.065Z,14.40
2023-01-29T17:43:35.813Z,14.10
2023-01-29T17:46:04.164Z,19.50
2023-01-29T17:48:32.814Z,13.93
2023-01-29T17:51:05.136Z,12.57
2023-01-29T17:53:45.598Z,10.57
2023-01-29T17:56:18.425Z,12.17
2023-01-29T17:58:46.533Z,10.47
2023-01-29T18:01:14.597Z,11.10
2023-01-29T18:03:42.882Z,9.13
2023-01-29T18:06:18.530Z,13.60
2023-01-29T18:08:46.515Z,10.83
2023-01-29T18:11:14.612Z,12.97
2023-01-29T18:13:42.622Z,10.97
2023-01-29T18:16:10.668Z,14.17
2023-01-29T18:18:38.927Z,11.87
2023-01-29T18:21:07.800Z,11.20
2023-01-29T18:23:37.155Z,10.37
2023-01-29T18:26:06.792Z,15.67
2023-01-29T18:28:34.998Z,13.17
2023-01-29T18:31:03.224Z,12.93
2023-01-29T18:33:31.778Z,8.47
2023-01-29T18:36:00.439Z,7.50
2023-01-29T18:38:28.590Z,9.43
2023-01-29T18:41:04.062Z,9.20
2023-01-29T18:43:32.079Z,10.10
2023-01-29T18:46:00.516Z,7.97
2023-01-29T18:48:29.319Z,8.33
2023-01-29T18:50:57.529Z,8.50
2023-01-29T18:53:25.671Z,7.90
2023-01-29T18:55:58.810Z,5.83
2023-01-29T18:58:36.053Z,9.20
2023-01-29T19:01:09.103Z,16.03
2023-01-29T19:03:37.860Z,11.20
2023-01-29T19:06:08.783Z,7.07
2023-01-29T19:08:37.404Z,10.73
2023-01-29T19:11:08.076Z,16.73
2023-01-29T19:13:38.888Z,10.57
2023-01-29T19:16:09.038Z,11.53
2023-01-29T19:18:37.579Z,10.50
2023-01-29T19:21:08.883Z,11.30
2023-01-29T19:23:37.026Z,9.97
2023-01-29T19:26:05.432Z,9.83
2023-01-29T19:28:34.115Z,13.20
2023-01-29T19:31:03.996Z,16.90
2023-01-29T19:33:32.049Z,12.23
2023-01-29T19:36:00.671Z,10.00
2023-01-29T19:38:29.141Z,10.60
2023-01-29T19:40:57.209Z,12.90
2023-01-29T19:43:25.242Z,24.27
2023-01-29T19:45:58.960Z,17.20
2023-01-29T19:48:29.270Z,19.30
2023-01-29T19:50:58.598Z,18.63
2023-01-29T19:53:28.684Z,21.73
2023-01-29T19:56:01.047Z,27.50
2023-01-29T19:58:29.615Z,25.20
2023-01-29T20:00:58.627Z,20.07
2023-01-29T20:03:29.401Z,16.30
2023-01-29T20:05:57.709Z,22.57
2023-01-29T20:08:25.715Z,16.87
2023-01-29T20:10:53.705Z,15.23
2023-01-29T20:13:21.718Z,15.57
2023-01-29T20:15:51.373Z,14.97
2023-01-29T20:18:19.771Z,16.37
2023-01-29T20:20:52.975Z,14.67
2023-01-29T20:23:36.737Z,11.90
2023-01-29T20:26:06.844Z,14.63
2023-01-29T20:28:35.766Z,14.03
2023-01-29T20:31:04.425Z,14.30
2023-01-29T20:33:33.576Z,15.33
2023-01-29T20:36:05.331Z,16.27
2023-01-29T20:38:34.638Z,18.17
2023-01-29T20:41:07.911Z,17.90
2023-01-29T20:43:36.499Z,17.17
2023-01-29T20:46:05.055Z,15.53
2023-01-29T20:48:33.615Z,15.93
2023-01-29T20:51:09.238Z,12.83
2023-01-29T20:53:37.782Z,20.07
2023-01-29T20:56:06.840Z,17.33
2023-01-29T20:58:47.457Z,24.60
2023-01-29T21:01:18.602Z,19.63
2023-01-29T21:03:47.476Z,18.93
2023-01-29T21:06:16.837Z,16.07
2023-01-29T21:08:45.032Z,23.03
2023-01-29T21:11:13.125Z,16.33
2023-01-29T21:13:41.088Z,17.27
2023-01-29T21:16:10.784Z,17.20
2023-01-29T21:18:38.829Z,17.30
2023-01-29T21:21:07.041Z,14.10
2023-01-29T21:23:36.477Z,13.87
2023-01-29T21:26:05.658Z,10.97
2023-01-29T21:28:34.610Z,12.37
2023-01-29T21:31:06.487Z,12.30
2023-01-29T21:33:35.056Z,16.87
2023-01-29T21:36:03.451Z,21.37
2023-01-29T21:38:31.562Z,18.40
2023-01-29T21:41:05.829Z,17.90
2023-01-29T21:43:33.134Z,20.93
2023-01-29T21:46:03.864Z,25.00
2023-01-29T21:48:31.974Z,22.27
2023-01-29T21:51:00.036Z,22.30
2023-01-29T21:53:28.063Z,25.47
2023-01-29T21:56:00.778Z,27.83
2023-01-29T21:58:30.823Z,26.13
2023-01-29T22:01:36.403Z,22.87
2023-01-29T22:03:47.611Z,24.53
2023-01-29T22:06:15.841Z,26.00
2023-01-29T22:08:43.958Z,21.60
2023-01-29T22:11:12.108Z,21.60
2023-01-29T22:13:41.472Z,21.13
2023-01-29T22:16:09.594Z,16.60
2023-01-29T22:18:37.712Z,19.53
2023-01-29T22:21:06.032Z,18.40
2023-01-29T22:23:34.226Z,21.90
2023-01-29T22:26:06.572Z,23.87
2023-01-29T22:28:34.593Z,24.73
2023-01-29T22:31:05.255Z,23.37
2023-01-29T22:33:33.619Z,29.57
2023-01-29T22:36:02.256Z,24.60
2023-01-29T22:38:30.880Z,26.20
2023-01-29T22:41:01.221Z,28.60
2023-01-29T22:43:29.437Z,26.67
2023-01-29T22:45:57.548Z,25.13
2023-01-29T22:48:28.236Z,26.47
2023-01-29T22:51:10.414Z,26.53
2023-01-29T22:53:38.674Z,24.40
2023-01-29T22:56:08.214Z,22.27
2023-01-29T22:58:36.241Z,22.77
2023-01-29T23:01:04.336Z,23.33
2023-01-29T23:03:33.941Z,25.60
2023-01-29T23:06:02.554Z,25.37
2023-01-29T23:08:30.726Z,25.13
2023-01-29T23:11:13.665Z,28.40
2023-01-29T23:13:43.169Z,28.33
2023-01-29T23:16:11.542Z,27.43
2023-01-29T23:18:41.594Z,25.83
2023-01-29T23:21:10.131Z,26.63
2023-01-29T23:23:38.653Z,20.73
2023-01-29T23:26:26.183Z,27.00
2023-01-29T23:28:54.505Z,21.97
2023-01-29T23:31:22.766Z,28.00
2023-01-29T23:33:52.362Z,26.33
2023-01-29T23:36:20.362Z,26.47
2023-01-29T23:38:48.524Z,21.30
2023-01-29T23:41:16.589Z,26.10
2023-01-29T23:43:44.631Z,21.87
2023-01-29T23:46:12.725Z,24.27
2023-01-29T23:48:40.788Z,25.30
2023-01-29T23:51:10.736Z,27.80
2023-01-29T23:53:38.860Z,21.10
2023-01-29T23:56:07.521Z,25.40
2023-01-29T23:58:35.912Z,29.63
